createdAt,value
2023-07-04T00:01:54.687Z,100301.66
2023-07-04T00:04:22.307Z,100287.34
2023-07-04T00:06:48.769Z,100287.63
2023-07-04T00:09:15.981Z,100292.06
2023-07-04T00:11:42.425Z,100306.59
2023-07-04T00:14:08.928Z,100310.81
2023-07-04T00:16:35.551Z,100320.16
2023-07-04T00:19:05.026Z,100318.22
2023-07-04T00:21:32.263Z,100314.69
2023-07-04T00:23:58.748Z,100321.31
2023-07-04T00:26:26.378Z,100323.97
2023-07-04T00:28:53.513Z,100326.88
2023-07-04T00:31:23.964Z,100324.44
2023-07-04T00:33:51.137Z,100325.31
2023-07-04T00:36:18.931Z,100335.66
2023-07-04T00:38:49.922Z,100331.56
2023-07-04T00:41:22.196Z,100339.06
2023-07-04T00:44:08.532Z,100331.13
2023-07-04T00:46:41.054Z,100335.38
2023-07-04T00:49:19.898Z,100333.69
2023-07-04T00:52:00.834Z,100330.97
2023-07-04T00:54:30.920Z,100332.22
2023-07-04T00:57:03.837Z,100336.19
2023-07-04T00:59:32.503Z,100334.94
2023-07-04T01:01:59.047Z,100331.94
2023-07-04T01:04:25.628Z,100336.06
2023-07-04T01:07:10.811Z,100337.44
2023-07-04T01:09:39.469Z,100337.94
2023-07-04T01:12:06.816Z,100340.53
2023-07-04T01:14:33.272Z,100331.06
2023-07-04T01:16:59.786Z,100333.84
2023-07-04T01:19:29.267Z,100328.09
2023-07-04T01:22:40.781Z,100324.91
2023-07-04T01:25:15.309Z,100319.56
2023-07-04T01:27:43.195Z,100322.31
2023-07-04T01:30:14.015Z,100325.06
2023-07-04T01:32:42.024Z,100331.72
2023-07-04T01:35:12.141Z,100328.22
2023-07-04T01:37:38.757Z,100328.78
2023-07-04T01:40:08.609Z,100322.88
2023-07-04T01:42:37.201Z,100320.78
2023-07-04T01:45:06.160Z,100323.84
2023-07-04T01:47:35.001Z,100328.63
2023-07-04T01:50:02.227Z,100328.78
2023-07-04T01:52:31.304Z,100328.56
2023-07-04T01:54:57.911Z,100330.56
2023-07-04T01:57:25.141Z,100322.59
2023-07-04T01:59:51.792Z,100328.63
2023-07-04T02:02:18.755Z,100338.09
2023-07-04T02:04:45.207Z,100348.59
2023-07-04T02:07:12.547Z,100344.56
2023-07-04T02:09:39.101Z,100370.34
2023-07-04T02:12:05.994Z,100353.75
2023-07-04T02:14:32.435Z,100337.16
2023-07-04T02:16:58.925Z,100337.44
2023-07-04T02:19:25.379Z,100336.75
2023-07-04T02:21:51.838Z,100344.72
2023-07-04T02:24:18.338Z,100337.91
2023-07-04T02:26:44.793Z,100353.53
2023-07-04T02:29:11.216Z,100339.34
2023-07-04T02:31:37.769Z,100342.00
2023-07-04T02:34:04.256Z,100343.66
2023-07-04T02:36:30.697Z,100328.56
2023-07-04T02:38:57.118Z,100335.69
2023-07-04T02:41:23.583Z,100338.94
2023-07-04T02:43:50.956Z,100343.19
2023-07-04T02:46:17.501Z,100344.47
2023-07-04T02:48:43.984Z,100348.13
2023-07-04T02:51:10.403Z,100340.44
2023-07-04T02:53:36.812Z,100339.09
2023-07-04T02:56:03.379Z,100345.75
2023-07-04T02:58:29.837Z,100342.50
2023-07-04T03:00:56.509Z,100344.16
2023-07-04T03:03:23.510Z,100344.31
2023-07-04T03:05:50.429Z,100340.84
2023-07-04T03:08:17.252Z,100342.22
2023-07-04T03:10:48.692Z,100341.03
2023-07-04T03:13:15.349Z,100340.28
2023-07-04T03:15:42.530Z,100341.72
2023-07-04T03:18:09.291Z,100345.69
2023-07-04T03:20:35.826Z,100350.59
2023-07-04T03:23:02.375Z,100348.22
2023-07-04T03:25:28.804Z,100355.53
2023-07-04T03:27:55.228Z,100348.81
2023-07-04T03:30:22.642Z,100348.00
2023-07-04T03:32:49.154Z,100351.25
2023-07-04T03:35:15.645Z,100348.97
2023-07-04T03:37:42.190Z,100357.56
2023-07-04T03:40:10.927Z,100349.38
2023-07-04T03:42:38.966Z,100356.34
2023-07-04T03:45:06.867Z,100355.22
2023-07-04T03:47:33.577Z,100356.25
2023-07-04T03:50:00.215Z,100351.59
2023-07-04T03:52:26.808Z,100350.22
2023-07-04T03:54:54.030Z,100358.66
2023-07-04T03:57:20.609Z,100352.06
2023-07-04T03:59:47.019Z,100357.63
2023-07-04T04:02:13.450Z,100361.13
2023-07-04T04:04:42.784Z,100362.72
2023-07-04T04:07:10.817Z,100360.31
2023-07-04T04:09:38.326Z,100359.81
2023-07-04T04:12:06.238Z,100359.69
2023-07-04T04:14:33.574Z,100370.06
2023-07-04T04:17:00.245Z,100359.13
2023-07-04T04:19:27.451Z,100361.75
2023-07-04T04:21:54.264Z,100361.03
2023-07-04T04:24:21.845Z,100368.19
2023-07-04T04:26:48.871Z,100362.34
2023-07-04T04:29:18.203Z,100370.00
2023-07-04T04:31:48.388Z,100367.56
2023-07-04T04:34:18.137Z,100364.50
2023-07-04T04:36:44.947Z,100375.66
2023-07-04T04:39:11.388Z,100374.22
2023-07-04T04:41:37.809Z,100382.63
2023-07-04T04:44:05.966Z,100384.41
2023-07-04T04:46:33.359Z,100383.47
2023-07-04T04:49:03.734Z,100382.84
2023-07-04T04:51:31.810Z,100397.59
2023-07-04T04:53:58.786Z,100391.00
2023-07-04T04:56:25.388Z,100388.94
2023-07-04T04:58:53.346Z,100399.75
2023-07-04T05:01:23.795Z,100402.63
2023-07-04T05:03:53.518Z,100395.28
2023-07-04T05:06:25.069Z,100402.44
2023-07-04T05:08:51.977Z,100407.72
2023-07-04T05:11:18.591Z,100416.97
2023-07-04T05:13:48.934Z,100413.38
2023-07-04T05:16:18.128Z,100420.84
2023-07-04T05:18:47.070Z,100414.31
2023-07-04T05:21:16.242Z,100418.81
2023-07-04T05:23:44.253Z,100401.75
2023-07-04T05:26:30.991Z,100420.78
2023-07-04T05:28:59.600Z,100412.63
2023-07-04T05:31:28.532Z,100420.84
2023-07-04T05:33:56.016Z,100420.94
2023-07-04T05:36:27.769Z,100420.03
2023-07-04T05:38:56.001Z,100423.50
2023-07-04T05:41:24.358Z,100419.78
2023-07-04T05:43:51.008Z,100410.63
2023-07-04T05:46:18.788Z,100406.16
2023-07-04T05:48:45.772Z,100419.53
2023-07-04T05:51:14.106Z,100417.44
2023-07-04T05:53:42.313Z,100427.06
2023-07-04T05:56:23.429Z,100427.63
2023-07-04T05:58:51.740Z,100420.75
2023-07-04T06:01:43.226Z,100428.66
2023-07-04T06:04:11.586Z,100427.75
2023-07-04T06:06:42.742Z,100427.34
2023-07-04T06:09:12.100Z,100430.09
2023-07-04T06:11:40.334Z,100430.38
2023-07-04T06:14:07.609Z,100437.28
2023-07-04T06:16:37.655Z,100435.72
2023-07-04T06:19:04.149Z,100448.25
2023-07-04T06:21:43.298Z,100432.22
2023-07-04T06:24:11.325Z,100441.88
2023-07-04T06:26:37.941Z,100433.09
2023-07-04T06:29:04.507Z,100444.31
2023-07-04T06:31:31.152Z,100438.81
2023-07-04T06:33:57.776Z,100440.59
2023-07-04T06:36:24.834Z,100436.38
2023-07-04T06:38:51.468Z,100436.91
2023-07-04T06:41:18.381Z,100439.41
2023-07-04T06:43:46.329Z,100443.41
2023-07-04T06:46:14.912Z,100448.88
2023-07-04T06:48:41.366Z,100459.16
2023-07-04T06:51:07.718Z,100456.97
2023-07-04T06:53:35.616Z,100459.47
2023-07-04T06:56:13.794Z,100453.88
2023-07-04T06:58:52.797Z,100459.47
2023-07-04T07:01:20.544Z,100453.38
2023-07-04T07:03:47.517Z,100453.44
2023-07-04T07:06:14.531Z,100453.00
2023-07-04T07:08:41.721Z,100454.19
2023-07-04T07:11:11.672Z,100461.81
2023-07-04T07:13:39.341Z,100466.13
2023-07-04T07:16:11.686Z,100460.63
2023-07-04T07:18:40.603Z,100470.22
2023-07-04T07:21:09.713Z,100469.50
2023-07-04T07:23:37.570Z,100468.84
2023-07-04T07:26:06.294Z,100476.06
2023-07-04T07:28:36.023Z,100479.50
2023-07-04T07:31:33.800Z,100479.13
2023-07-04T07:34:01.656Z,100476.75
2023-07-04T07:36:38.802Z,100479.38
2023-07-04T07:39:07.170Z,100473.38
2023-07-04T07:41:37.669Z,100483.84
2023-07-04T07:44:06.751Z,100481.69
2023-07-04T07:46:33.456Z,100481.69
2023-07-04T07:48:59.922Z,100479.78
2023-07-04T07:51:27.489Z,100483.94
2023-07-04T07:53:54.683Z,100479.94
2023-07-04T07:56:23.230Z,100483.16
2023-07-04T07:58:49.775Z,100471.69
2023-07-04T08:01:20.015Z,100475.84
2023-07-04T08:03:46.992Z,100485.47
2023-07-04T08:06:27.760Z,100482.84
2023-07-04T08:08:56.031Z,100484.41
2023-07-04T08:11:23.526Z,100485.69
2023-07-04T08:13:50.696Z,100483.91
2023-07-04T08:16:19.896Z,100481.03
2023-07-04T08:18:46.704Z,100484.72
2023-07-04T08:21:13.397Z,100484.31
2023-07-04T08:23:39.817Z,100480.66
2023-07-04T08:26:06.317Z,100481.50
2023-07-04T08:28:32.752Z,100480.53
2023-07-04T08:31:06.625Z,100477.97
2023-07-04T08:33:34.004Z,100481.16
2023-07-04T08:36:08.046Z,100479.53
2023-07-04T08:38:34.608Z,100485.13
2023-07-04T08:41:01.615Z,100482.06
2023-07-04T08:43:35.246Z,100476.09
2023-07-04T08:46:07.053Z,100480.56
2023-07-04T08:48:33.887Z,100484.66
2023-07-04T08:51:03.925Z,100471.69
2023-07-04T08:53:31.337Z,100475.56
2023-07-04T08:56:17.585Z,100475.66
2023-07-04T08:59:02.757Z,100478.22
2023-07-04T09:01:55.765Z,100482.31
2023-07-04T09:04:31.688Z,100485.25
2023-07-04T09:07:20.797Z,100496.88
2023-07-04T09:10:15.291Z,100505.47
2023-07-04T09:12:41.946Z,100493.31
2023-07-04T09:15:23.778Z,100494.19
2023-07-04T09:20:52.955Z,100489.03
2023-07-04T09:23:23.398Z,100498.94
2023-07-04T09:25:52.126Z,100503.81
2023-07-04T09:28:18.601Z,100506.66
2023-07-04T09:30:46.920Z,100514.56
2023-07-04T09:33:16.476Z,100514.69
2023-07-04T09:35:43.673Z,100510.44
2023-07-04T09:38:10.173Z,100504.03
2023-07-04T09:40:41.231Z,100510.34
2023-07-04T09:43:10.150Z,100518.44
2023-07-04T09:45:36.790Z,100510.63
2023-07-04T09:48:04.862Z,100482.03
2023-07-04T09:50:33.255Z,100471.47
2023-07-04T09:53:10.502Z,100479.66
2023-07-04T09:55:39.027Z,100478.06
2023-07-04T09:58:24.938Z,100480.97
2023-07-04T10:01:09.559Z,100479.41
2023-07-04T10:03:42.566Z,100502.16
2023-07-04T10:06:10.257Z,100502.66
2023-07-04T10:08:56.957Z,100500.19
2023-07-04T10:11:27.928Z,100499.59
2023-07-04T10:14:08.652Z,100503.44
2023-07-04T10:16:36.078Z,100497.34
2023-07-04T10:19:04.784Z,100508.72
2023-07-04T10:21:31.221Z,100491.53
2023-07-04T10:23:59.711Z,100498.03
2023-07-04T10:26:26.256Z,100484.47
2023-07-04T10:28:53.387Z,100493.81
2023-07-04T10:31:22.742Z,100497.19
2023-07-04T10:33:58.048Z,100496.00
2023-07-04T10:36:29.888Z,100485.22
2023-07-04T10:38:59.980Z,100488.91
2023-07-04T10:41:33.575Z,100480.81
2023-07-04T10:44:04.141Z,100496.31
2023-07-04T10:46:34.212Z,100494.50
2023-07-04T10:49:07.684Z,100485.78
2023-07-04T10:51:40.318Z,100482.50
2023-07-04T10:54:09.092Z,100495.06
2023-07-04T10:56:36.233Z,100484.09
2023-07-04T10:59:10.195Z,100488.94
2023-07-04T11:01:47.180Z,100491.50
2023-07-04T11:04:27.523Z,100493.81
2023-07-04T11:07:00.042Z,100485.88
2023-07-04T11:09:27.671Z,100484.47
2023-07-04T11:12:02.578Z,100492.13
2023-07-04T11:14:31.177Z,100490.47
2023-07-04T11:17:03.004Z,100490.50
2023-07-04T11:19:31.278Z,100485.53
2023-07-04T11:22:08.884Z,100487.84
2023-07-04T11:24:51.009Z,100488.84
2023-07-04T11:27:26.152Z,100497.22
2023-07-04T11:29:57.983Z,100483.41
2023-07-04T11:32:27.515Z,100482.56
2023-07-04T11:35:15.688Z,100467.97
2023-07-04T11:37:44.346Z,100465.69
2023-07-04T11:40:25.240Z,100482.03
2023-07-04T11:43:01.171Z,100478.94
2023-07-04T11:45:30.695Z,100478.97
2023-07-04T11:48:02.245Z,100480.34
2023-07-04T11:50:35.600Z,100475.78
2023-07-04T11:53:30.409Z,100468.16
2023-07-04T11:56:18.021Z,100459.72
2023-07-04T11:58:46.143Z,100477.06
2023-07-04T12:01:15.770Z,100481.09
2023-07-04T12:03:54.382Z,100477.56
2023-07-04T12:06:37.102Z,100478.72
2023-07-04T12:09:03.928Z,100476.41
2023-07-04T12:11:43.683Z,100479.81
2023-07-04T12:14:12.571Z,100488.94
2023-07-04T12:16:39.173Z,100483.66
2023-07-04T12:19:06.026Z,100487.72
2023-07-04T12:21:33.904Z,100480.34
2023-07-04T12:24:04.498Z,100478.69
2023-07-04T12:26:33.499Z,100482.09
2023-07-04T12:29:16.153Z,100481.09
2023-07-04T12:31:43.310Z,100482.47
2023-07-04T12:34:11.463Z,100479.44
2023-07-04T12:36:44.975Z,100479.31
2023-07-04T12:39:15.213Z,100481.50
2023-07-04T12:41:43.969Z,100494.84
2023-07-04T12:51:44.824Z,100493.09
2023-07-04T12:54:12.226Z,100496.22
2023-07-04T12:56:42.312Z,100487.38
2023-07-04T12:59:31.928Z,100501.31
2023-07-04T13:01:58.577Z,100492.50
2023-07-04T13:04:25.162Z,100490.94
2023-07-04T13:06:52.345Z,100487.47
2023-07-04T13:09:20.507Z,100478.81
2023-07-04T13:11:47.245Z,100493.72
2023-07-04T13:14:13.706Z,100490.03
2023-07-04T13:16:40.651Z,100491.78
2023-07-04T13:19:07.137Z,100494.34
2023-07-04T13:21:37.316Z,100484.28
2023-07-04T13:26:42.008Z,100488.19
2023-07-04T13:34:22.675Z,100482.75
2023-07-04T13:37:00.902Z,100488.44
2023-07-04T13:41:59.216Z,100485.91
2023-07-04T13:46:55.238Z,100483.13
2023-07-04T13:49:22.269Z,100480.00
2023-07-04T13:51:48.720Z,100469.22
2023-07-04T13:54:15.169Z,100473.13
2023-07-04T13:56:41.738Z,100473.16
2023-07-04T13:59:08.175Z,100471.25
2023-07-04T14:06:33.638Z,100464.28
2023-07-04T14:09:00.148Z,100473.97
2023-07-04T14:11:26.582Z,100474.59
2023-07-04T14:13:56.594Z,100468.09
2023-07-04T14:21:25.095Z,100475.41
2023-07-04T14:23:51.710Z,100468.44
2023-07-04T14:26:22.136Z,100474.16
2023-07-04T14:28:50.799Z,100457.50
2023-07-04T14:31:17.415Z,100468.13
2023-07-04T14:33:43.911Z,100468.81
2023-07-04T14:36:10.440Z,100464.59
2023-07-04T14:38:37.260Z,100467.06
2023-07-04T14:43:37.453Z,100475.31
2023-07-04T14:46:07.167Z,100476.03
2023-07-04T14:48:34.417Z,100463.19
2023-07-04T14:51:02.642Z,100483.56
2023-07-04T14:53:29.111Z,100476.53
2023-07-04T14:55:59.639Z,100469.88
2023-07-04T14:58:26.317Z,100465.88
2023-07-04T15:00:55.256Z,100469.19
2023-07-04T15:03:22.047Z,100460.88
2023-07-04T15:05:48.520Z,100448.50
2023-07-04T15:08:15.532Z,100458.34
2023-07-04T15:10:45.563Z,100460.44
2023-07-04T15:13:12.116Z,100458.00
2023-07-04T15:15:38.615Z,100456.00
2023-07-04T15:18:05.112Z,100456.38
2023-07-04T15:20:31.670Z,100460.47
2023-07-04T15:22:58.165Z,100457.06
2023-07-04T15:25:24.585Z,100444.84
2023-07-04T15:27:51.016Z,100450.69
2023-07-04T15:30:17.452Z,100445.53
2023-07-04T15:32:44.996Z,100444.97
2023-07-04T15:37:38.399Z,100442.59
2023-07-04T15:40:05.907Z,100433.78
2023-07-04T15:42:33.503Z,100436.72
2023-07-04T15:45:00.586Z,100430.56
2023-07-04T15:47:27.620Z,100421.56
2023-07-04T15:49:54.182Z,100427.91
2023-07-04T15:52:21.241Z,100414.84
2023-07-04T15:54:47.688Z,100411.66
2023-07-04T15:57:14.100Z,100412.16
2023-07-04T15:59:40.626Z,100404.38
2023-07-04T16:02:07.069Z,100402.84
2023-07-04T16:04:33.722Z,100400.53
2023-07-04T16:07:02.077Z,100396.72
2023-07-04T16:09:28.592Z,100401.72
2023-07-04T16:11:55.004Z,100394.94
2023-07-04T16:14:21.456Z,100393.25
2023-07-04T16:16:48.016Z,100392.91
2023-07-04T16:19:14.495Z,100397.69
2023-07-04T16:21:40.901Z,100389.13
2023-07-04T16:24:07.441Z,100387.13
2023-07-04T16:26:34.484Z,100389.94
2023-07-04T16:29:01.006Z,100395.91
2023-07-04T16:31:27.507Z,100393.06
2023-07-04T16:33:53.945Z,100384.81
2023-07-04T16:36:20.449Z,100382.41
2023-07-04T16:38:46.872Z,100382.41
2023-07-04T16:41:13.992Z,100377.28
2023-07-04T16:43:41.069Z,100383.41
2023-07-04T16:46:08.206Z,100379.09
2023-07-04T16:48:35.423Z,100379.19
2023-07-04T16:51:02.053Z,100376.78
2023-07-04T16:53:28.891Z,100374.75
2023-07-04T16:56:00.859Z,100378.31
2023-07-04T16:58:27.776Z,100375.06
2023-07-04T17:00:54.621Z,100377.88
2023-07-04T17:03:21.306Z,100376.47
2023-07-04T17:05:49.309Z,100376.75
2023-07-04T17:08:15.812Z,100372.44
2023-07-04T17:10:50.014Z,100369.19
2023-07-04T17:13:31.918Z,100365.50
2023-07-04T17:16:03.128Z,100375.28
2023-07-04T17:18:29.610Z,100370.13
2023-07-04T17:20:56.507Z,100362.31
2023-07-04T17:23:22.908Z,100356.50
2023-07-04T17:25:50.815Z,100351.97
2023-07-04T17:28:18.044Z,100352.78
2023-07-04T17:30:44.869Z,100355.09
2023-07-04T17:33:11.322Z,100351.69
2023-07-04T17:35:47.701Z,100349.81
2023-07-04T17:38:17.553Z,100345.69
2023-07-04T17:40:43.976Z,100339.78
2023-07-04T17:43:11.933Z,100350.44
2023-07-04T17:45:38.783Z,100351.03
2023-07-04T17:48:05.382Z,100347.91
2023-07-04T17:50:32.144Z,100347.25
2023-07-04T17:52:58.557Z,100342.84
2023-07-04T17:55:26.482Z,100344.56
2023-07-04T17:57:55.612Z,100346.22
2023-07-04T18:00:22.251Z,100347.09
2023-07-04T18:02:49.532Z,100343.44
2023-07-04T18:05:16.069Z,100339.25
2023-07-04T18:07:42.503Z,100343.81
2023-07-04T18:10:09.890Z,100349.84
2023-07-04T18:12:36.339Z,100350.53
2023-07-04T18:15:02.789Z,100333.72
2023-07-04T18:17:31.125Z,100346.84
2023-07-04T18:19:59.590Z,100344.03
2023-07-04T18:22:26.662Z,100334.31
2023-07-04T18:24:54.684Z,100335.13
2023-07-04T18:27:21.522Z,100331.41
2023-07-04T18:29:47.947Z,100333.75
2023-07-04T18:32:14.472Z,100326.72
2023-07-04T18:34:40.906Z,100329.28
2023-07-04T18:37:07.345Z,100324.00
2023-07-04T18:39:33.792Z,100330.84
2023-07-04T18:42:00.306Z,100326.25
2023-07-04T18:44:26.862Z,100322.69
2023-07-04T18:46:54.461Z,100319.09
2023-07-04T18:49:25.564Z,100314.53
2023-07-04T18:51:53.578Z,100312.75
2023-07-04T18:54:20.135Z,100307.53
2023-07-04T18:56:47.284Z,100309.19
2023-07-04T18:59:14.885Z,100305.88
2023-07-04T19:04:12.070Z,100312.59
2023-07-04T19:06:38.862Z,100303.88
2023-07-04T19:09:05.790Z,100304.69
2023-07-04T19:11:38.492Z,100307.13
2023-07-04T19:14:09.495Z,100317.41
2023-07-04T19:16:56.690Z,100306.84
2023-07-04T19:19:25.923Z,100304.38
2023-07-04T19:21:57.299Z,100305.22
2023-07-04T19:24:26.038Z,100296.31
2023-07-04T19:26:52.762Z,100300.53
2023-07-04T19:29:19.725Z,100298.66
2023-07-04T19:31:53.566Z,100302.03
2023-07-04T19:34:23.079Z,100298.34
2023-07-04T19:36:50.521Z,100305.34
2023-07-04T19:39:16.952Z,100307.97
2023-07-04T19:41:43.723Z,100321.06
2023-07-04T19:44:13.304Z,100324.84
2023-07-04T19:46:39.857Z,100335.84
2023-07-04T19:49:06.333Z,100339.22
2023-07-04T19:51:32.810Z,100330.28
2023-07-04T19:54:02.016Z,100331.97
2023-07-04T19:56:31.507Z,100328.19
2023-07-04T19:58:58.190Z,100324.44
2023-07-04T20:01:27.327Z,100332.03
2023-07-04T20:03:54.237Z,100328.09
2023-07-04T20:06:22.114Z,100328.28
2023-07-04T20:08:50.074Z,100324.31
2023-07-04T20:11:16.927Z,100326.56
2023-07-04T20:13:44.970Z,100325.59
2023-07-04T20:16:15.989Z,100322.88
2023-07-04T20:18:42.797Z,100309.13
2023-07-04T20:21:09.907Z,100299.66
2023-07-04T20:23:36.697Z,100305.25
2023-07-04T20:26:04.182Z,100287.34
2023-07-04T20:28:31.181Z,100298.06
2023-07-04T20:31:00.030Z,100304.16
2023-07-04T20:33:33.647Z,100306.84
2023-07-04T20:36:00.814Z,100312.84
2023-07-04T20:38:27.308Z,100310.69
2023-07-04T20:40:53.946Z,100311.59
2023-07-04T20:43:21.107Z,100305.84
2023-07-04T20:45:47.575Z,100289.06
2023-07-04T20:48:14.430Z,100264.59
2023-07-04T20:50:47.733Z,100263.28
2023-07-04T20:53:14.965Z,100262.16
2023-07-04T20:55:42.523Z,100250.72
2023-07-04T20:58:09.536Z,100250.72
2023-07-04T21:00:38.436Z,100236.78
2023-07-04T21:03:07.122Z,100228.16
2023-07-04T21:05:33.955Z,100220.00
2023-07-04T21:08:00.445Z,100216.22
2023-07-04T21:10:33.032Z,100211.19
2023-07-04T21:13:00.226Z,100213.13
2023-07-04T21:15:28.037Z,100217.28
2023-07-04T21:17:55.921Z,100210.63
2023-07-04T21:20:23.545Z,100213.91
2023-07-04T21:22:50.022Z,100219.06
2023-07-04T21:25:17.194Z,100223.59
2023-07-04T21:27:43.771Z,100212.69
2023-07-04T21:30:11.045Z,100209.56
2023-07-04T21:32:37.987Z,100206.88
2023-07-04T21:35:04.970Z,100204.41
2023-07-04T21:37:31.416Z,100197.28
2023-07-04T21:39:57.943Z,100190.16
2023-07-04T21:42:24.460Z,100191.75
2023-07-04T21:44:54.494Z,100182.59
2023-07-04T21:47:21.152Z,100177.88
2023-07-04T21:49:49.966Z,100168.69
2023-07-04T21:52:17.249Z,100158.38
2023-07-04T21:54:45.391Z,100152.72
2023-07-04T21:57:12.188Z,100154.66
2023-07-04T21:59:38.668Z,100156.84
2023-07-04T22:02:05.563Z,100148.44
2023-07-04T22:04:32.028Z,100136.56
2023-07-04T22:06:59.465Z,100140.81
2023-07-04T22:09:26.527Z,100137.63
2023-07-04T22:11:53.028Z,100131.91
2023-07-04T22:14:35.759Z,100126.78
2023-07-04T22:17:05.224Z,100129.34
2023-07-04T22:19:31.964Z,100129.50
2023-07-04T22:21:58.627Z,100123.75
2023-07-04T22:24:26.198Z,100124.59
2023-07-04T22:26:52.715Z,100119.81
2023-07-04T22:29:19.171Z,100117.00
2023-07-04T22:31:45.755Z,100107.59
2023-07-04T22:34:12.690Z,100097.00
2023-07-04T22:36:39.709Z,100099.19
2023-07-04T22:39:08.347Z,100096.00
2023-07-04T22:41:34.834Z,100083.38
2023-07-04T22:44:01.266Z,100095.72
2023-07-04T22:46:30.134Z,100100.50
2023-07-04T22:48:57.195Z,100074.59
2023-07-04T22:51:23.791Z,100064.34
2023-07-04T22:53:50.768Z,100061.50
2023-07-04T22:56:17.209Z,100046.59
2023-07-04T22:58:43.668Z,100046.09
2023-07-04T23:01:16.488Z,100038.44
2023-07-04T23:03:43.224Z,100038.50
2023-07-04T23:06:10.620Z,100026.63
2023-07-04T23:08:37.136Z,100021.78
2023-07-04T23:11:03.722Z,100029.38
2023-07-04T23:13:30.542Z,100009.72
2023-07-04T23:16:06.089Z,100000.47
2023-07-04T23:18:32.785Z,99996.22
2023-07-04T23:20:59.289Z,99981.25
2023-07-04T23:23:26.381Z,99983.13
2023-07-04T23:25:53.333Z,99976.22
2023-07-04T23:28:20.078Z,99968.41
2023-07-04T23:30:46.561Z,99969.22
2023-07-04T23:33:13.064Z,99971.00
2023-07-04T23:35:39.479Z,99970.41
2023-07-04T23:38:05.914Z,99950.59
2023-07-04T23:40:32.552Z,99962.06
2023-07-04T23:42:58.961Z,99951.69
2023-07-04T23:45:25.407Z,99954.25
2023-07-04T23:47:51.844Z,99945.88
2023-07-04T23:50:18.392Z,99947.72
2023-07-04T23:52:44.836Z,99941.19
2023-07-04T23:55:11.265Z,99942.09
2023-07-04T23:57:37.697Z,99933.75
